createdAt,value
2019-02-24T00:00:05.543Z,25.8
2019-02-24T00:00:55.488Z,25.7
2019-02-24T00:01:45.057Z,25.7
2019-02-24T00:02:35.575Z,25.7
2019-02-24T00:03:25.640Z,25.6
2019-02-24T00:04:16.195Z,25.6
2019-02-24T00:05:05.210Z,25.6
2019-02-24T00:05:55.536Z,25.6
2019-02-24T00:06:45.830Z,25.6
2019-02-24T00:07:36.417Z,25.6
2019-02-24T00:08:25.962Z,25.5
2019-02-24T00:09:16.843Z,25.5
2019-02-24T00:10:06.365Z,25.5
2019-02-24T00:10:56.713Z,25.4
2019-02-24T00:11:47.014Z,25.4
2019-02-24T00:12:37.025Z,25.4
2019-02-24T00:13:27.084Z,25.4
2019-02-24T00:14:16.067Z,25.4
2019-02-24T00:15:06.960Z,25.3
2019-02-24T00:15:56.989Z,25.3
2019-02-24T00:16:47.040Z,25.3
2019-02-24T00:17:36.809Z,25.3
2019-02-24T00:18:26.866Z,25.3
2019-02-24T00:19:16.394Z,25.3
2019-02-24T00:20:06.989Z,25.2
2019-02-24T00:20:57.612Z,25.2
2019-02-24T00:21:47.129Z,25.2
2019-02-24T00:22:37.434Z,25.1
2019-02-24T00:23:27.499Z,25.1
2019-02-24T00:24:16.989Z,25.1
2019-02-24T00:25:07.417Z,25.1
2019-02-24T00:25:56.903Z,25.1
2019-02-24T00:26:47.448Z,25.1
2019-02-24T00:27:37.596Z,25.1
2019-02-24T00:28:27.359Z,25
2019-02-24T00:29:17.733Z,25
2019-02-24T00:30:07.771Z,25
2019-02-24T00:30:56.704Z,24.9
2019-02-24T00:31:47.922Z,24.9
2019-02-24T00:32:39.496Z,24.9
2019-02-24T00:33:27.756Z,24.9
2019-02-24T00:34:17.744Z,24.9
2019-02-24T00:35:07.842Z,24.9
2019-02-24T00:35:57.908Z,24.8
2019-02-24T00:36:47.088Z,24.8
2019-02-24T00:37:38.498Z,24.8
2019-02-24T00:38:28.239Z,24.8
2019-02-24T00:39:18.111Z,24.8
2019-02-24T00:40:08.936Z,24.8
2019-02-24T00:40:58.409Z,24.8
2019-02-24T00:41:48.797Z,24.7
2019-02-24T00:42:38.873Z,24.7
2019-02-24T00:43:28.328Z,24.7
2019-02-24T00:44:18.965Z,24.6
2019-02-24T00:45:08.427Z,24.6
2019-02-24T00:45:58.753Z,24.6
2019-02-24T00:46:48.926Z,24.6
2019-02-24T00:47:39.200Z,24.6
2019-02-24T00:48:29.536Z,24.6
2019-02-24T00:49:19.298Z,24.6
2019-02-24T00:50:09.073Z,24.5
2019-02-24T00:50:59.385Z,24.5
2019-02-24T00:51:48.960Z,24.5
2019-02-24T00:52:38.958Z,24.4
2019-02-24T00:53:29.273Z,24.4
2019-02-24T00:54:19.130Z,24.4
2019-02-24T00:55:08.943Z,24.4
2019-02-24T00:55:59.503Z,24.4
2019-02-24T00:56:49.222Z,24.4
2019-02-24T00:57:38.823Z,24.4
2019-02-24T00:58:28.847Z,24.4
2019-02-24T00:59:19.485Z,24.3
2019-02-24T01:00:09.791Z,24.3
2019-02-24T01:00:59.045Z,24.1
2019-02-24T01:01:49.880Z,24.1
2019-02-24T01:02:39.965Z,24
2019-02-24T01:03:29.462Z,23.9
2019-02-24T01:04:19.807Z,23.8
2019-02-24T01:05:09.607Z,23.8
2019-02-24T01:05:59.638Z,23.8
2019-02-24T01:06:50.007Z,23.6
2019-02-24T01:07:39.257Z,23.6
2019-02-24T01:08:29.534Z,23.6
2019-02-24T01:09:19.609Z,23.5
2019-02-24T01:10:09.672Z,23.4
2019-02-24T01:11:00.318Z,23.4
2019-02-24T01:11:50.048Z,23.4
2019-02-24T01:12:40.120Z,23.3
2019-02-24T01:13:30.164Z,23.3
2019-02-24T01:14:20.284Z,23.3
2019-02-24T01:15:10.854Z,23.3
2019-02-24T01:16:00.884Z,23.2
2019-02-24T01:16:50.697Z,23.1
2019-02-24T01:17:40.726Z,23.1
2019-02-24T01:18:30.500Z,23.1
2019-02-24T01:19:20.089Z,23.1
2019-02-24T01:20:10.629Z,23
2019-02-24T01:21:01.312Z,23
2019-02-24T01:21:50.746Z,23
2019-02-24T01:22:41.061Z,22.9
2019-02-24T01:23:31.172Z,22.9
2019-02-24T01:24:20.913Z,22.9
2019-02-24T01:25:11.577Z,22.9
2019-02-24T01:26:00.736Z,22.8
2019-02-24T01:26:51.561Z,22.8
2019-02-24T01:27:42.199Z,22.8
2019-02-24T01:28:32.976Z,22.8
2019-02-24T01:29:22.031Z,22.8
2019-02-24T01:30:12.087Z,22.7
2019-02-24T01:31:01.093Z,22.7
2019-02-24T01:31:51.141Z,22.6
2019-02-24T01:32:42.506Z,22.6
2019-02-24T01:33:31.771Z,22.6
2019-02-24T01:34:22.400Z,22.6
2019-02-24T01:35:12.196Z,22.6
2019-02-24T01:36:01.343Z,22.5
2019-02-24T01:36:52.809Z,22.5
2019-02-24T01:37:42.343Z,22.4
2019-02-24T01:38:32.423Z,22.4
2019-02-24T01:39:22.133Z,22.4
2019-02-24T01:40:12.549Z,22.4
2019-02-24T01:41:02.240Z,22.3
2019-02-24T01:41:52.428Z,22.3
2019-02-24T01:42:43.200Z,22.3
2019-02-24T01:43:32.962Z,22.3
2019-02-24T01:44:22.038Z,22.3
2019-02-24T01:45:12.617Z,22.2
2019-02-24T01:46:02.313Z,22.2
2019-02-24T01:46:52.733Z,22.1
2019-02-24T01:47:42.245Z,22.1
2019-02-24T01:48:33.305Z,22.1
2019-02-24T01:49:23.177Z,22.1
2019-02-24T01:50:12.912Z,22.1
2019-02-24T01:51:03.492Z,22.1
2019-02-24T01:51:52.806Z,22
2019-02-24T01:52:43.174Z,22
2019-02-24T01:53:33.934Z,22
2019-02-24T01:54:24.027Z,21.9
2019-02-24T01:55:13.212Z,21.9
2019-02-24T01:56:03.027Z,21.9
2019-02-24T01:56:53.422Z,21.9
2019-02-24T01:57:43.939Z,21.8
2019-02-24T01:58:42.532Z,21.8
2019-02-24T01:59:24.388Z,21.8
2019-02-24T02:00:14.139Z,21.8
2019-02-24T02:01:04.186Z,21.8
2019-02-24T02:01:54.234Z,21.8
2019-02-24T02:02:44.031Z,21.7
2019-02-24T02:03:34.096Z,21.7
2019-02-24T02:04:23.594Z,21.7
2019-02-24T02:05:13.929Z,21.6
2019-02-24T02:06:04.256Z,21.6
2019-02-24T02:06:54.016Z,21.6
2019-02-24T02:07:44.974Z,21.6
2019-02-24T02:08:34.732Z,21.6
2019-02-24T02:09:24.874Z,21.6
2019-02-24T02:10:15.111Z,21.6
2019-02-24T02:11:04.415Z,21.5
2019-02-24T02:11:54.434Z,21.5
2019-02-24T02:12:44.976Z,21.5
2019-02-24T02:13:35.078Z,21.5
2019-02-24T02:14:24.836Z,21.4
2019-02-24T02:15:15.151Z,21.4
2019-02-24T02:16:05.494Z,21.4
2019-02-24T02:16:55.271Z,21.4
2019-02-24T02:17:45.098Z,21.4
2019-02-24T02:18:35.145Z,21.4
2019-02-24T02:19:25.485Z,21.4
2019-02-24T02:20:15.478Z,21.3
2019-02-24T02:21:05.564Z,21.3
2019-02-24T02:21:55.672Z,21.3
2019-02-24T02:22:45.710Z,21.3
2019-02-24T02:23:34.880Z,21.3
2019-02-24T02:24:25.515Z,21.3
2019-02-24T02:25:15.081Z,21.3
2019-02-24T02:26:04.867Z,21.2
2019-02-24T02:26:55.000Z,21.2
2019-02-24T02:27:45.575Z,21.2
2019-02-24T02:28:44.879Z,21.2
2019-02-24T02:29:24.527Z,21.2
2019-02-24T02:32:46.136Z,21.1
2019-02-24T02:33:36.425Z,21.1
2019-02-24T02:34:25.924Z,21.1
2019-02-24T02:35:16.603Z,21.1
2019-02-24T02:36:06.092Z,21.1
2019-02-24T02:36:56.722Z,21
2019-02-24T02:37:46.441Z,21
2019-02-24T02:38:35.959Z,21
2019-02-24T02:39:26.914Z,21
2019-02-24T02:40:16.892Z,20.9
2019-02-24T02:41:06.992Z,21
2019-02-24T02:41:57.085Z,20.9
2019-02-24T02:42:46.805Z,20.9
2019-02-24T02:43:37.134Z,20.9
2019-02-24T02:44:27.476Z,20.9
2019-02-24T02:45:17.256Z,20.9
2019-02-24T02:46:07.037Z,20.9
2019-02-24T02:46:57.672Z,20.9
2019-02-24T02:47:47.433Z,20.8
2019-02-24T02:48:37.517Z,20.8
2019-02-24T02:49:27.251Z,20.8
2019-02-24T02:50:17.999Z,20.8
2019-02-24T02:51:07.724Z,20.8
2019-02-24T02:51:57.443Z,20.8
2019-02-24T02:52:47.810Z,20.8
2019-02-24T02:53:37.571Z,20.8
2019-02-24T02:54:27.085Z,20.8
2019-02-24T02:55:17.379Z,20.8
2019-02-24T02:56:07.820Z,20.7
2019-02-24T02:56:58.375Z,20.7
2019-02-24T02:57:48.383Z,20.7
2019-02-24T02:58:37.367Z,20.7
2019-02-24T02:59:28.511Z,20.7
2019-02-24T03:00:17.503Z,20.7
2019-02-24T03:01:07.749Z,20.6
2019-02-24T03:01:58.399Z,20.6
2019-02-24T03:02:48.173Z,20.6
2019-02-24T03:03:37.418Z,20.6
2019-02-24T03:04:28.281Z,20.6
2019-02-24T03:08:00.505Z,20.6
2019-02-24T03:08:50.837Z,20.6
2019-02-24T03:09:41.425Z,20.5
2019-02-24T03:10:31.128Z,20.6
2019-02-24T03:11:21.829Z,20.5
2019-02-24T03:12:11.350Z,20.5
2019-02-24T03:13:01.676Z,20.5
2019-02-24T03:13:51.111Z,20.5
2019-02-24T03:14:41.495Z,20.5
2019-02-24T03:15:30.408Z,20.4
2019-02-24T03:16:24.538Z,20.4
2019-02-24T03:17:11.690Z,20.4
2019-02-24T03:18:02.244Z,20.4
2019-02-24T03:18:52.070Z,20.4
2019-02-24T03:19:41.268Z,20.4
2019-02-24T03:20:31.855Z,20.4
2019-02-24T03:21:22.325Z,20.4
2019-02-24T03:22:12.246Z,20.4
2019-02-24T03:23:01.475Z,20.4
2019-02-24T03:23:52.408Z,20.4
2019-02-24T03:24:41.700Z,20.4
2019-02-24T03:25:32.540Z,20.3
2019-02-24T03:26:22.314Z,20.4
2019-02-24T03:27:12.367Z,20.4
2019-02-24T03:28:02.167Z,20.3
2019-02-24T03:28:52.185Z,20.3
2019-02-24T03:29:42.296Z,20.3
2019-02-24T03:30:32.471Z,20.3
2019-02-24T03:31:22.634Z,20.3
2019-02-24T03:32:12.800Z,20.3
2019-02-24T03:33:02.889Z,20.3
2019-02-24T03:33:53.283Z,20.3
2019-02-24T03:34:43.364Z,20.3
2019-02-24T03:35:32.633Z,20.3
2019-02-24T03:36:23.011Z,20.3
2019-02-24T03:37:13.018Z,20.3
2019-02-24T03:38:03.062Z,20.2
2019-02-24T03:38:53.392Z,20.2
2019-02-24T03:39:43.732Z,20.2
2019-02-24T03:40:32.944Z,20.2
2019-02-24T03:41:23.498Z,20.2
2019-02-24T03:42:13.879Z,20.2
2019-02-24T03:43:03.395Z,20.2
2019-02-24T03:43:53.854Z,20.1
2019-02-24T03:44:43.570Z,20.1
2019-02-24T03:45:33.851Z,20.1
2019-02-24T03:46:23.633Z,20.1
2019-02-24T03:47:13.658Z,20.1
2019-02-24T03:48:03.748Z,20.1
2019-02-24T03:48:54.359Z,20.1
2019-02-24T03:49:44.378Z,20.1
2019-02-24T03:50:33.377Z,20.1
2019-02-24T03:51:23.966Z,20.1
2019-02-24T03:52:14.288Z,20.1
2019-02-24T03:53:04.205Z,20.1
2019-02-24T03:53:54.404Z,20.1
2019-02-24T03:54:44.236Z,20.1
2019-02-24T03:55:34.497Z,20.1
2019-02-24T03:56:24.874Z,20
2019-02-24T03:57:14.383Z,20.1
2019-02-24T03:58:04.472Z,20.1
2019-02-24T03:58:54.465Z,20
2019-02-24T03:59:44.811Z,20
2019-02-24T04:00:34.614Z,20
2019-02-24T04:01:24.940Z,20
2019-02-24T04:02:15.242Z,20
2019-02-24T04:03:04.811Z,20
2019-02-24T04:03:55.126Z,20
2019-02-24T04:04:44.853Z,19.9
2019-02-24T04:05:35.216Z,19.9
2019-02-24T04:06:25.317Z,19.9
2019-02-24T04:07:15.015Z,19.9
2019-02-24T04:08:04.895Z,19.9
2019-02-24T04:08:55.493Z,19.9
2019-02-24T04:09:45.824Z,19.9
2019-02-24T04:10:34.700Z,19.9
2019-02-24T04:11:25.300Z,19.9
2019-02-24T04:12:15.355Z,19.9
2019-02-24T04:13:05.474Z,19.9
2019-02-24T04:13:54.747Z,19.9
2019-02-24T04:14:45.589Z,19.9
2019-02-24T04:15:35.601Z,19.9
2019-02-24T04:16:25.075Z,19.9
2019-02-24T04:17:15.424Z,19.9
2019-02-24T04:18:06.089Z,19.8
2019-02-24T04:18:55.463Z,19.9
2019-02-24T04:19:45.992Z,19.9
2019-02-24T04:20:35.959Z,19.8
2019-02-24T04:21:26.292Z,19.8
2019-02-24T04:22:16.627Z,19.8
2019-02-24T04:23:05.290Z,19.8
2019-02-24T04:23:56.460Z,19.8
2019-02-24T04:24:46.482Z,19.8
2019-02-24T04:25:35.757Z,19.8
2019-02-24T04:26:26.372Z,19.8
2019-02-24T04:27:18.750Z,19.8
2019-02-24T04:28:06.459Z,19.8
2019-02-24T04:28:57.035Z,19.8
2019-02-24T04:29:46.589Z,19.8
2019-02-24T04:30:35.905Z,19.8
2019-02-24T04:31:27.317Z,19.8
2019-02-24T04:32:17.009Z,19.7
2019-02-24T04:33:07.337Z,19.7
2019-02-24T04:33:57.130Z,19.8
2019-02-24T04:34:46.899Z,19.7
2019-02-24T04:35:37.066Z,19.7
2019-02-24T04:36:27.311Z,19.7
2019-02-24T04:37:16.791Z,19.7
2019-02-24T04:38:07.136Z,19.7
2019-02-24T04:38:56.904Z,19.7
2019-02-24T04:39:46.416Z,19.7
2019-02-24T04:40:37.581Z,19.7
2019-02-24T04:41:27.175Z,19.7
2019-02-24T04:42:17.711Z,19.7
2019-02-24T04:43:07.711Z,19.6
2019-02-24T04:43:58.098Z,19.7
2019-02-24T04:44:47.871Z,19.6
2019-02-24T04:45:37.623Z,19.6
2019-02-24T04:46:26.623Z,19.6
2019-02-24T04:47:18.325Z,19.6
2019-02-24T04:48:07.071Z,19.6
2019-02-24T04:48:57.676Z,19.6
2019-02-24T04:49:47.444Z,19.6
2019-02-24T04:50:37.598Z,19.6
2019-02-24T04:51:27.609Z,19.6
2019-02-24T04:52:17.598Z,19.6
2019-02-24T04:53:08.011Z,19.6
2019-02-24T04:53:57.163Z,19.6
2019-02-24T04:54:47.835Z,19.6
2019-02-24T04:55:38.878Z,19.6
2019-02-24T04:56:28.440Z,19.6
2019-02-24T04:57:18.722Z,19.6
2019-02-24T04:58:08.239Z,19.6
2019-02-24T04:58:58.556Z,19.6
2019-02-24T04:59:48.865Z,19.6
2019-02-24T05:00:38.941Z,19.5
2019-02-24T05:01:29.252Z,19.6
2019-02-24T05:02:19.046Z,19.5
2019-02-24T05:03:09.127Z,19.5
2019-02-24T05:03:58.896Z,19.5
2019-02-24T05:04:48.420Z,19.5
2019-02-24T05:05:39.057Z,19.5
2019-02-24T05:06:28.583Z,19.5
2019-02-24T05:07:18.924Z,19.5
2019-02-24T05:08:08.972Z,19.5
2019-02-24T05:08:59.053Z,19.5
2019-02-24T05:09:48.807Z,19.5
2019-02-24T05:10:38.879Z,19.5
2019-02-24T05:11:28.935Z,19.4
2019-02-24T05:12:19.239Z,19.4
2019-02-24T05:13:09.160Z,19.4
2019-02-24T05:13:59.084Z,19.4
2019-02-24T05:14:49.449Z,19.4
2019-02-24T05:15:38.936Z,19.4
2019-02-24T05:16:29.586Z,19.4
2019-02-24T05:17:19.901Z,19.4
2019-02-24T05:18:09.322Z,19.4
2019-02-24T05:18:59.965Z,19.3
2019-02-24T05:19:50.517Z,19.3
2019-02-24T05:20:40.562Z,19.4
2019-02-24T05:21:30.644Z,19.3
2019-02-24T05:22:20.160Z,19.3
2019-02-24T05:23:10.225Z,19.3
2019-02-24T05:24:00.544Z,19.3
2019-02-24T05:24:50.317Z,19.3
2019-02-24T05:25:40.437Z,19.3
2019-02-24T05:26:30.444Z,19.3
2019-02-24T05:27:20.193Z,19.3
2019-02-24T05:28:10.812Z,19.3
2019-02-24T05:29:00.665Z,19.3
2019-02-24T05:29:53.782Z,19.3
2019-02-24T05:30:40.749Z,19.3
2019-02-24T05:31:31.314Z,19.3
2019-02-24T05:32:20.587Z,19.3
2019-02-24T05:33:10.873Z,19.2
2019-02-24T05:34:00.937Z,19.2
2019-02-24T05:34:51.641Z,19.2
2019-02-24T05:35:41.328Z,19.2
2019-02-24T05:36:33.863Z,19.2
2019-02-24T05:37:21.463Z,19.2
2019-02-24T05:38:11.245Z,19.2
2019-02-24T05:39:01.612Z,19.2
2019-02-24T05:39:51.890Z,19.1
2019-02-24T05:40:41.364Z,19.1
2019-02-24T05:41:31.731Z,19.1
2019-02-24T05:42:22.050Z,19.6
2019-02-24T05:43:12.135Z,19.8
2019-02-24T05:44:01.624Z,20
2019-02-24T05:44:52.252Z,20.2
2019-02-24T05:45:41.542Z,20.3
2019-02-24T05:46:31.786Z,20.4
2019-02-24T05:47:21.639Z,20.4
2019-02-24T05:48:12.478Z,20.4
2019-02-24T05:49:02.229Z,20.6
2019-02-24T05:49:52.021Z,20.7
2019-02-24T05:50:41.771Z,20.8
2019-02-24T05:51:31.894Z,21
2019-02-24T05:52:22.179Z,21.2
2019-02-24T05:53:11.183Z,21.3
2019-02-24T05:54:01.776Z,21.5
2019-02-24T05:54:54.535Z,21.6
2019-02-24T05:55:42.656Z,21.8
2019-02-24T05:56:33.025Z,21.9
2019-02-24T05:57:22.543Z,21.9
2019-02-24T05:58:12.706Z,22
2019-02-24T05:59:02.892Z,22.1
2019-02-24T06:00:03.009Z,22.1
2019-02-24T06:00:42.734Z,22.1
2019-02-24T06:01:33.368Z,22.1
2019-02-24T06:02:23.112Z,22.2
2019-02-24T06:03:12.423Z,22.2
2019-02-24T06:04:02.416Z,22.1
2019-02-24T06:06:01.127Z,22.1
2019-02-24T06:06:49.845Z,22.1
2019-02-24T06:07:41.228Z,22.1
2019-02-24T06:08:31.248Z,22
2019-02-24T06:09:21.050Z,22
2019-02-24T06:10:11.075Z,22
2019-02-24T06:11:01.447Z,21.9
2019-02-24T06:11:51.240Z,21.9
2019-02-24T06:12:41.825Z,21.8
2019-02-24T06:13:31.035Z,21.8
2019-02-24T06:14:20.813Z,21.8
2019-02-24T06:15:10.981Z,21.8
2019-02-24T06:16:00.952Z,21.8
2019-02-24T06:16:50.722Z,21.7
2019-02-24T06:17:41.875Z,21.7
2019-02-24T06:18:31.197Z,21.7
2019-02-24T06:19:21.214Z,21.7
2019-02-24T06:20:11.548Z,21.6
2019-02-24T06:21:01.324Z,21.6
2019-02-24T06:21:51.589Z,21.6
2019-02-24T06:22:40.859Z,21.6
2019-02-24T06:23:32.563Z,21.6
2019-02-24T06:24:21.769Z,21.6
2019-02-24T06:25:11.557Z,21.6
2019-02-24T06:26:02.698Z,21.5
2019-02-24T06:26:52.544Z,21.6
2019-02-24T06:27:42.537Z,21.5
2019-02-24T06:28:32.945Z,21.5
2019-02-24T06:29:22.117Z,21.5
2019-02-24T06:30:13.324Z,21.5
2019-02-24T06:31:02.802Z,21.5
2019-02-24T06:31:51.764Z,21.5
2019-02-24T06:32:42.366Z,21.4
2019-02-24T06:33:33.219Z,21.4
2019-02-24T06:34:22.176Z,21.4
2019-02-24T06:35:12.792Z,21.4
2019-02-24T06:36:02.050Z,21.4
2019-02-24T06:36:52.626Z,21.4
2019-02-24T06:37:42.954Z,21.4
2019-02-24T06:38:33.534Z,21.4
2019-02-24T06:39:22.808Z,21.4
2019-02-24T06:40:12.363Z,21.4
2019-02-24T06:41:04.861Z,21.4
2019-02-24T06:41:53.501Z,21.4
2019-02-24T06:42:43.288Z,21.4
2019-02-24T06:43:32.027Z,21.4
2019-02-24T06:44:23.696Z,21.4
2019-02-24T06:45:12.626Z,21.3
2019-02-24T06:46:02.671Z,21.4
2019-02-24T06:46:53.029Z,21.4
2019-02-24T06:47:44.011Z,21.4
2019-02-24T06:48:33.998Z,21.3
2019-02-24T06:49:22.993Z,21.3
2019-02-24T06:50:13.846Z,21.3
2019-02-24T06:51:03.611Z,21.3
2019-02-24T06:51:53.971Z,21.3
2019-02-24T06:52:44.475Z,21.3
2019-02-24T06:53:33.550Z,21.3
2019-02-24T06:54:23.785Z,21.3
2019-02-24T06:55:13.642Z,21.3
2019-02-24T06:56:03.935Z,21.3
2019-02-24T06:56:53.948Z,21.3
2019-02-24T06:57:44.325Z,21.3
2019-02-24T06:58:33.327Z,21.3
2019-02-24T06:59:23.137Z,21.3
2019-02-24T07:00:21.275Z,21.3
2019-02-24T07:01:04.112Z,21.3
2019-02-24T07:01:52.985Z,21.3
2019-02-24T07:02:44.419Z,21.3
2019-02-24T07:03:34.007Z,21.2
2019-02-24T07:06:00.385Z,21.2
2019-02-24T07:06:49.410Z,21.2
2019-02-24T07:07:39.992Z,21.2
2019-02-24T07:08:29.502Z,21.2
2019-02-24T07:09:21.792Z,21.2
2019-02-24T07:13:30.875Z,21.2
2019-02-24T07:18:31.437Z,21.2
2019-02-24T07:19:20.654Z,21.2
2019-02-24T07:20:12.318Z,21.2
2019-02-24T07:21:02.147Z,21.3
2019-02-24T07:21:52.151Z,21.3
2019-02-24T07:22:41.622Z,21.4
2019-02-24T07:23:32.522Z,21.6
2019-02-24T07:24:22.349Z,21.8
2019-02-24T07:25:11.894Z,21.9
2019-02-24T07:26:02.141Z,22
2019-02-24T07:26:52.476Z,22.1
2019-02-24T07:27:42.258Z,22.3
2019-02-24T07:28:32.269Z,22.4
2019-02-24T07:29:22.918Z,22.4
2019-02-24T07:30:12.159Z,22.5
2019-02-24T07:31:03.094Z,22.6
2019-02-24T07:31:52.546Z,22.6
2019-02-24T07:32:42.893Z,22.6
2019-02-24T07:33:33.253Z,22.7
2019-02-24T07:34:22.506Z,22.8
2019-02-24T07:35:13.348Z,22.8
2019-02-24T07:36:03.136Z,22.9
2019-02-24T07:36:53.243Z,22.9
2019-02-24T07:37:42.698Z,22.9
2019-02-24T07:38:33.543Z,23
2019-02-24T07:39:23.623Z,23
2019-02-24T07:40:13.666Z,23.1
2019-02-24T07:41:03.178Z,23.2
2019-02-24T07:41:53.195Z,23.3
2019-02-24T07:42:43.828Z,23.4
2019-02-24T07:43:32.908Z,23.5
2019-02-24T07:44:23.190Z,23.6
2019-02-24T07:45:13.725Z,23.6
2019-02-24T07:46:02.713Z,23.6
2019-02-24T07:46:52.515Z,23.7
2019-02-24T07:47:43.605Z,23.7
2019-02-24T07:48:33.410Z,23.8
2019-02-24T07:49:23.758Z,23.8
2019-02-24T07:50:13.580Z,23.8
2019-02-24T07:51:03.307Z,23.9
2019-02-24T07:51:54.477Z,23.9
2019-02-24T07:52:43.729Z,23.9
2019-02-24T07:53:34.259Z,24
2019-02-24T07:54:24.334Z,24
2019-02-24T07:55:14.380Z,24.1
2019-02-24T07:56:03.402Z,24.1
2019-02-24T07:56:54.245Z,24.2
2019-02-24T07:57:44.409Z,24.3
2019-02-24T07:58:34.393Z,24.4
2019-02-24T07:59:24.469Z,24.4
2019-02-24T08:00:13.412Z,24.4
2019-02-24T08:01:04.043Z,24.5
2019-02-24T08:01:54.152Z,24.5
2019-02-24T08:02:44.229Z,24.6
2019-02-24T08:03:34.486Z,24.6
2019-02-24T08:04:24.789Z,24.6
2019-02-24T08:05:29.524Z,24.7
2019-02-24T08:06:04.914Z,24.8
2019-02-24T08:06:55.504Z,24.8
2019-02-24T08:07:45.226Z,24.8
2019-02-24T08:08:35.017Z,24.8
2019-02-24T08:09:24.853Z,24.9
2019-02-24T08:10:15.397Z,24.9
2019-02-24T08:11:05.448Z,25
2019-02-24T08:11:55.531Z,25.1
2019-02-24T08:12:45.571Z,25.1
2019-02-24T08:13:35.331Z,25.1
2019-02-24T08:14:25.693Z,25.2
2019-02-24T08:15:16.061Z,25.3
2019-02-24T08:16:06.077Z,25.3
2019-02-24T08:16:55.639Z,25.3
2019-02-24T08:17:45.679Z,25.4
2019-02-24T08:18:35.995Z,25.4
2019-02-24T08:19:26.043Z,25.4
2019-02-24T08:20:16.113Z,25.4
2019-02-24T08:21:07.679Z,25.5
2019-02-24T08:21:56.206Z,25.6
2019-02-24T08:22:46.511Z,25.6
2019-02-24T08:23:36.120Z,25.7
2019-02-24T08:24:26.365Z,25.8
2019-02-24T08:25:15.843Z,25.8
2019-02-24T08:26:06.796Z,25.9
2019-02-24T08:26:56.817Z,25.9
2019-02-24T08:27:46.859Z,25.9
2019-02-24T08:28:36.406Z,25.9
2019-02-24T08:29:26.213Z,26
2019-02-24T08:30:17.052Z,26.1
2019-02-24T08:31:06.836Z,26.1
2019-02-24T08:31:56.290Z,26.2
2019-02-24T08:32:46.963Z,26.3
2019-02-24T08:33:37.242Z,26.3
2019-02-24T08:34:26.765Z,26.3
2019-02-24T08:35:16.883Z,26.3
2019-02-24T08:36:07.178Z,26.3
2019-02-24T08:36:57.033Z,26.4
2019-02-24T08:37:46.985Z,26.4
2019-02-24T08:38:37.304Z,26.4
2019-02-24T08:39:27.443Z,26.4
2019-02-24T08:40:17.286Z,26.5
2019-02-24T08:41:07.267Z,26.5
2019-02-24T08:41:57.308Z,26.6
2019-02-24T08:42:47.876Z,26.6
2019-02-24T08:43:37.363Z,26.6
2019-02-24T08:44:30.040Z,26.7
2019-02-24T08:45:17.243Z,26.7
2019-02-24T08:46:07.598Z,26.6
2019-02-24T08:46:57.397Z,26.6
2019-02-24T08:47:47.347Z,26.7
2019-02-24T08:48:37.025Z,26.8
2019-02-24T08:49:27.839Z,26.8
2019-02-24T08:50:17.827Z,26.8
2019-02-24T08:51:08.211Z,26.9
2019-02-24T08:51:58.592Z,26.9
2019-02-24T08:52:48.567Z,26.9
2019-02-24T08:53:38.384Z,26.9
2019-02-24T08:54:28.681Z,26.9
2019-02-24T08:55:18.576Z,26.9
2019-02-24T08:56:08.354Z,27
2019-02-24T08:57:00.757Z,27.1
2019-02-24T08:57:48.614Z,27.1
2019-02-24T08:58:39.009Z,27.1
2019-02-24T08:59:29.059Z,27.2
2019-02-24T09:00:18.854Z,27.2
2019-02-24T09:01:08.866Z,27.3
2019-02-24T09:01:59.229Z,27.2
2019-02-24T09:02:48.793Z,27.3
2019-02-24T09:03:38.004Z,27.2
2019-02-24T09:04:29.094Z,27.3
2019-02-24T09:05:17.889Z,27.3
2019-02-24T09:06:09.467Z,27.3
2019-02-24T09:06:59.294Z,27.3
2019-02-24T09:07:49.604Z,27.2
2019-02-24T09:08:38.598Z,27.1
2019-02-24T09:09:29.138Z,27.1
2019-02-24T09:10:19.748Z,27.1
2019-02-24T09:11:09.887Z,27.1
2019-02-24T09:11:59.105Z,27
2019-02-24T09:12:49.380Z,26.9
2019-02-24T09:13:39.753Z,26.9
2019-02-24T09:14:30.071Z,26.9
2019-02-24T09:15:19.667Z,26.8
2019-02-24T09:16:10.271Z,26.8
2019-02-24T09:16:59.943Z,26.7
2019-02-24T09:17:49.812Z,26.6
2019-02-24T09:18:40.073Z,26.6
2019-02-24T09:19:30.168Z,26.5
2019-02-24T09:20:20.295Z,26.4
2019-02-24T09:21:09.733Z,26.4
2019-02-24T09:22:00.335Z,26.4
2019-02-24T09:22:50.387Z,26.3
2019-02-24T09:23:40.103Z,26.3
2019-02-24T09:24:29.385Z,26.3
2019-02-24T09:25:19.773Z,26.3
2019-02-24T09:26:10.577Z,26.2
2019-02-24T09:27:00.622Z,26.3
2019-02-24T09:27:50.947Z,26.3
2019-02-24T09:28:40.438Z,26.3
2019-02-24T09:29:29.817Z,26.4
2019-02-24T09:30:20.350Z,26.5
2019-02-24T09:31:10.167Z,26.6
2019-02-24T09:32:00.170Z,26.7
2019-02-24T09:32:50.484Z,26.8
2019-02-24T09:33:41.402Z,26.9
2019-02-24T09:34:31.434Z,26.9
2019-02-24T09:35:20.209Z,26.9
2019-02-24T09:36:10.941Z,26.9
2019-02-24T09:37:00.729Z,27
2019-02-24T09:37:51.335Z,27.1
2019-02-24T09:38:41.468Z,27.1
2019-02-24T09:39:31.443Z,27.1
2019-02-24T09:40:21.226Z,27.1
2019-02-24T09:41:11.300Z,27.1
2019-02-24T09:42:01.457Z,27.2
2019-02-24T09:42:51.402Z,27.3
2019-02-24T09:43:42.008Z,27.3
2019-02-24T09:44:31.319Z,27.4
2019-02-24T09:45:22.136Z,27.4
2019-02-24T09:46:12.234Z,27.6
2019-02-24T09:47:02.239Z,27.6
2019-02-24T09:47:54.394Z,27.6
2019-02-24T09:48:42.382Z,27.6
2019-02-24T09:49:32.252Z,27.6
2019-02-24T09:50:22.457Z,27.6
2019-02-24T09:51:12.252Z,27.7
2019-02-24T09:52:02.311Z,27.8
2019-02-24T09:53:42.721Z,27.9
2019-02-24T09:54:32.748Z,27.9
2019-02-24T09:55:22.816Z,27.9
2019-02-24T09:56:12.846Z,27.9
2019-02-24T09:57:02.631Z,27.9
2019-02-24T09:57:52.726Z,27.9
2019-02-24T09:58:43.041Z,28
2019-02-24T09:59:32.537Z,28
2019-02-24T10:00:25.337Z,28.1
2019-02-24T10:01:18.725Z,28.1
2019-02-24T10:02:03.243Z,28.2
2019-02-24T10:02:53.016Z,28.2
2019-02-24T10:03:42.535Z,28.2
2019-02-24T10:04:33.157Z,28.3
2019-02-24T10:07:00.970Z,28.3
2019-02-24T10:07:50.412Z,28.3
2019-02-24T10:08:41.298Z,28.3
2019-02-24T10:09:31.070Z,28.3
2019-02-24T10:10:21.140Z,28.4
2019-02-24T10:11:13.182Z,28.4
2019-02-24T10:12:01.325Z,28.4
2019-02-24T10:12:51.703Z,28.4
2019-02-24T10:13:41.205Z,28.4
2019-02-24T10:14:31.478Z,28.4
2019-02-24T10:15:21.830Z,28.5
2019-02-24T10:16:11.805Z,28.4
2019-02-24T10:17:01.100Z,28.4
2019-02-24T10:17:51.428Z,28.4
2019-02-24T10:18:41.437Z,28.5
2019-02-24T10:19:32.932Z,28.5
2019-02-24T10:20:22.105Z,28.5
2019-02-24T10:21:11.458Z,28.4
2019-02-24T10:22:01.647Z,28.4
2019-02-24T10:22:52.272Z,28.4
2019-02-24T10:23:41.784Z,28.4
2019-02-24T10:24:32.145Z,28.3
2019-02-24T10:25:22.175Z,28.3
2019-02-24T10:26:11.645Z,28.2
2019-02-24T10:27:02.544Z,28.1
2019-02-24T10:27:52.326Z,28.1
2019-02-24T10:28:42.662Z,28.1
2019-02-24T10:29:32.445Z,28
2019-02-24T10:30:22.789Z,27.9
2019-02-24T10:31:21.494Z,27.9
2019-02-24T10:32:52.739Z,27.8
2019-02-24T10:33:42.491Z,27.7
2019-02-24T10:34:32.495Z,27.6
2019-02-24T10:35:22.024Z,27.6
2019-02-24T10:36:12.941Z,27.5
2019-02-24T10:37:03.239Z,27.5
2019-02-24T10:37:53.014Z,27.4
2019-02-24T10:38:43.046Z,27.4
2019-02-24T10:39:37.336Z,27.3
2019-02-24T10:40:22.952Z,27.3
2019-02-24T10:41:12.966Z,27.2
2019-02-24T10:42:03.615Z,27.2
2019-02-24T10:42:53.063Z,27.2
2019-02-24T10:43:43.146Z,27.1
2019-02-24T10:44:33.501Z,27.1
2019-02-24T10:45:23.533Z,27
2019-02-24T10:46:15.732Z,26.9
2019-02-24T10:47:06.233Z,26.9
2019-02-24T10:47:52.806Z,26.9
2019-02-24T10:48:43.541Z,26.9
2019-02-24T10:49:34.098Z,26.9
2019-02-24T10:50:23.599Z,26.8
2019-02-24T10:51:13.380Z,26.8
2019-02-24T10:52:03.485Z,26.8
2019-02-24T10:52:54.383Z,26.7
2019-02-24T10:53:44.363Z,26.7
2019-02-24T10:54:34.187Z,26.7
2019-02-24T10:55:24.518Z,26.6
2019-02-24T10:56:14.263Z,26.6
2019-02-24T10:57:04.029Z,26.6
2019-02-24T10:57:54.393Z,26.5
2019-02-24T10:58:44.452Z,26.5
2019-02-24T10:59:34.800Z,26.4
2019-02-24T11:00:24.475Z,26.4
2019-02-24T11:01:14.606Z,26.4
2019-02-24T11:02:04.433Z,26.4
2019-02-24T11:02:54.710Z,26.4
2019-02-24T11:03:44.774Z,26.3
2019-02-24T11:04:34.855Z,26.3
2019-02-24T11:05:24.955Z,26.3
2019-02-24T11:06:14.679Z,26.3
2019-02-24T11:07:04.758Z,26.2
2019-02-24T11:07:55.072Z,26.2
2019-02-24T11:08:45.160Z,26.1
2019-02-24T11:09:35.139Z,26.1
2019-02-24T11:10:25.485Z,26.1
2019-02-24T11:11:15.289Z,26.1
2019-02-24T11:12:05.620Z,26.1
2019-02-24T11:12:55.374Z,26
2019-02-24T11:13:45.426Z,25.9
2019-02-24T11:14:35.500Z,25.9
2019-02-24T11:15:24.357Z,25.9
2019-02-24T11:16:14.904Z,25.9
2019-02-24T11:17:19.259Z,25.9
2019-02-24T11:17:55.727Z,25.9
2019-02-24T11:18:45.574Z,25.9
2019-02-24T11:19:36.109Z,25.8
2019-02-24T11:20:25.969Z,25.8
2019-02-24T11:21:15.989Z,25.8
2019-02-24T11:22:05.801Z,25.8
2019-02-24T11:23:09.911Z,25.7
2019-02-24T11:23:46.121Z,25.7
2019-02-24T11:24:35.632Z,25.6
2019-02-24T11:25:27.834Z,25.6
2019-02-24T11:26:16.284Z,25.6
2019-02-24T11:27:05.866Z,25.6